Maxie, Virginia
Current Conditions -  °F | °C
As of 5:35 PM on Tuesday 21 Oct 2014 (Local Time) from KJFZ Reporting Station
Overcast Overcast  
Wind Chill: 52°   Ceiling: 5000
Heat Index: 52°   Visibility: 10mi
Dew Point: 40°   Wind: 8mph
Humidity: 64%   Direction: 300°WNW
Pressure: 30"   Gusts: NA
Location:  37.3°N, 82.17°W
Report Text: KJFZ 212135Z AUTO 30007KT 260V330 10SM SCT029 SCT048 OVC050 11/05 A3000 RMK AO2 T01110046
Loading
Personal Weather Stations






























Interactive Weather Map
Tropical Storm Tracking
New forecast layout! Learn more

10-Day Weather Forecast

Advertisements
Track Severe Weather on mobile